Time;durP1;ratioP1;P1;durP2;ratioP2;P2;SDS_P1;SDS_P2;PMS_P1;PMS_P2;Temp;Humidity;BMP_temperature;BMP_pressure;BME280_temperature;BME280_humidity;BME280_pressure;Samples;Min_cycle;Max_cycle;Signal;HPM_P1;HPM_P2
2023/10/19 00:02:19;;;;;;;;;;;;;;;23.52;43.53;92864.88;5006436;28;7174;-63
2023/10/19 00:05:00;;;;;;;;;;;;;;;23.50;43.46;92855.69;5011830;28;7484;-63
2023/10/19 00:07:28;;;;;;;;;;;;;;;23.49;43.51;92865.22;4987173;28;7486;-62
2023/10/19 00:09:55;;;;;;;;;;;;;;;23.49;43.38;92862.47;4981534;28;7305;-62
2023/10/19 00:12:22;;;;;;;;;;;;;;;23.49;43.07;92857.69;5010881;28;7365;-63
2023/10/19 00:14:59;;;;;;;;;;;;;;;23.52;43.75;92845.66;4988178;28;8012;-62
2023/10/19 00:17:27;;;;;;;;;;;;;;;23.50;43.45;92839.97;4988657;28;7086;-61
2023/10/19 00:20:35;;;;;;;;;;;;;;;23.50;43.88;92841.97;4976582;28;7075;-62
2023/10/19 00:22:58;;;;;;;;;;;;;;;23.47;43.48;92846.50;5072550;28;7532;-62
2023/10/19 00:25:34;;;;;;;;;;;;;;;23.50;43.63;92869.41;5037538;28;8733;-62
2023/10/19 00:28:17;;;;;;;;;;;;;;;23.50;43.84;92852.94;5055584;28;9067;-62
2023/10/19 00:30:45;;;;;;;;;;;;;;;23.51;43.68;92848.94;5046272;28;7577;-61
2023/10/19 00:33:28;;;;;;;;;;;;;;;23.51;43.12;92854.44;5077864;28;7054;-62
2023/10/19 00:36:07;;;;;;;;;;;;;;;23.46;43.29;92834.06;5079618;28;8705;-62
2023/10/19 00:43:42;;;;;;;;;;;;;;;23.49;43.47;92846.00;5054907;28;7888;-62
2023/10/19 00:46:20;;;;;;;;;;;;;;;23.48;43.10;92833.53;5059130;28;7011;-62
2023/10/19 00:49:02;;;;;;;;;;;;;;;23.46;43.58;92834.06;5079978;28;7237;-62
2023/10/19 00:52:03;;;;;;;;;;;;;;;23.46;43.15;92836.81;5041533;28;7211;-62
2023/10/19 00:54:33;;;;;;;;;;;;;;;23.46;43.69;92825.09;5062464;28;7389;-62
2023/10/19 00:57:10;;;;;;;;;;;;;;;23.46;43.09;92828.59;5058073;28;7329;-62
2023/10/19 00:59:48;;;;;;;;;;;;;;;23.43;43.78;92826.16;5059827;28;8893;-62
2023/10/19 01:05:00;;;;;;;;;;;;;;;23.47;43.88;92837.56;5062975;28;9017;-62
2023/10/19 01:07:40;;;;;;;;;;;;;;;23.48;43.25;92833.53;5068438;28;7485;-62
2023/10/19 01:10:12;;;;;;;;;;;;;;;23.46;43.35;92822.34;5054867;28;9066;-61
2023/10/19 01:12:43;;;;;;;;;;;;;;;23.45;43.52;92818.13;5035336;28;7901;-61
2023/10/19 01:17:58;;;;;;;;;;;;;;;23.42;43.66;92821.97;5053513;28;6870;-62
2023/10/19 01:20:55;;;;;;;;;;;;;;;23.46;43.48;92823.09;5051117;28;7017;-62
2023/10/19 01:23:25;;;;;;;;;;;;;;;23.45;43.63;92810.63;5060598;28;7236;-62
2023/10/19 01:26:26;;;;;;;;;;;;;;;23.43;43.53;92804.22;5063461;28;7013;-62
2023/10/19 01:29:09;;;;;;;;;;;;;;;23.40;43.37;92799.81;5016043;28;7361;-62
2023/10/19 01:32:04;;;;;;;;;;;;;;;23.40;43.17;92805.28;5025999;28;6993;-62
2023/10/19 01:34:50;;;;;;;;;;;;;;;23.42;43.36;92795.25;5016914;28;9078;-62
2023/10/19 01:37:20;;;;;;;;;;;;;;;23.42;43.31;92803.50;5012791;28;6861;-62
2023/10/19 01:39:46;;;;;;;;;;;;;;;23.40;43.52;92786.84;5011393;28;7062;-62
2023/10/19 01:42:48;;;;;;;;;;;;;;;23.42;44.02;92792.53;5016465;28;7421;-62
2023/10/19 01:45:23;;;;;;;;;;;;;;;23.42;42.99;92786.28;4972280;28;7441;-62
2023/10/19 01:48:12;;;;;;;;;;;;;;;23.39;43.49;92785.34;4956017;28;7814;-62
2023/10/19 01:50:41;;;;;;;;;;;;;;;23.40;43.55;92783.34;4972092;28;7243;-62
2023/10/19 01:53:15;;;;;;;;;;;;;;;23.40;43.06;92777.84;4972077;28;8867;-62
2023/10/19 01:55:57;;;;;;;;;;;;;;;23.38;42.98;92778.38;4956326;28;7109;-62
2023/10/19 01:58:25;;;;;;;;;;;;;;;23.40;43.74;92791.56;4972199;28;9463;-62
2023/10/19 02:01:00;;;;;;;;;;;;;;;23.40;43.44;92786.09;4974016;28;9138;-62
2023/10/19 02:03:28;;;;;;;;;;;;;;;23.42;43.39;92778.06;4969969;28;7154;-62
2023/10/19 02:05:59;;;;;;;;;;;;;;;23.40;43.50;92755.91;4985135;28;7833;-62
2023/10/19 02:08:26;;;;;;;;;;;;;;;23.41;43.28;92763.59;4999193;28;6998;-62
2023/10/19 02:10:53;;;;;;;;;;;;;;;23.42;43.55;92764.34;4997397;28;7015;-62
2023/10/19 02:13:21;;;;;;;;;;;;;;;23.42;42.98;92759.59;4991146;28;7271;-62
2023/10/19 02:15:51;;;;;;;;;;;;;;;23.41;43.66;92752.63;4996439;28;7320;-62
2023/10/19 02:18:17;;;;;;;;;;;;;;;23.40;43.48;92744.94;5000891;28;7167;-62
2023/10/19 02:20:48;;;;;;;;;;;;;;;23.39;43.96;92755.16;5056866;28;8812;-62
2023/10/19 02:23:14;;;;;;;;;;;;;;;23.41;43.71;92757.38;5055073;28;7030;-62
2023/10/19 02:25:42;;;;;;;;;;;;;;;23.41;43.05;92771.09;5063886;28;6962;-62
2023/10/19 02:28:09;;;;;;;;;;;;;;;23.40;43.59;92761.41;5059843;28;9103;-62
2023/10/19 02:30:38;;;;;;;;;;;;;;;23.40;43.47;92762.13;5073718;28;7177;-62
2023/10/19 02:33:07;;;;;;;;;;;;;;;23.42;43.63;92758.84;5067259;28;8965;-62
2023/10/19 02:35:35;;;;;;;;;;;;;;;23.44;43.83;92767.28;5052029;28;7254;-56
2023/10/19 02:38:01;;;;;;;;;;;;;;;23.44;43.20;92767.28;5071387;28;7263;-56
2023/10/19 02:40:31;;;;;;;;;;;;;;;23.43;43.62;92754.81;5046874;28;7135;-56
2023/10/19 02:43:02;;;;;;;;;;;;;;;23.39;43.59;92752.44;5055896;28;7348;-56
2023/10/19 02:45:30;;;;;;;;;;;;;;;23.40;43.25;92748.41;5045308;28;7455;-56
2023/10/19 02:47:58;;;;;;;;;;;;;;;23.40;42.97;92751.16;5060472;28;8815;-56
2023/10/19 02:50:26;;;;;;;;;;;;;;;23.40;43.47;92750.41;5079034;28;7073;-57
2023/10/19 02:52:56;;;;;;;;;;;;;;;23.43;43.09;92752.81;5056100;28;7246;-56
2023/10/19 02:55:25;;;;;;;;;;;;;;;23.41;43.42;92747.13;5046174;28;7648;-56
2023/10/19 02:57:51;;;;;;;;;;;;;;;23.41;43.80;92747.13;5073902;28;7518;-56
2023/10/19 03:00:20;;;;;;;;;;;;;;;23.38;43.30;92731.72;5054190;28;7223;-56
2023/10/19 03:02:51;;;;;;;;;;;;;;;23.41;43.63;92741.66;5065840;28;7091;-56
2023/10/19 03:05:20;;;;;;;;;;;;;;;23.40;43.11;92734.72;5058235;28;7243;-56
2023/10/19 03:07:52;;;;;;;;;;;;;;;23.40;43.46;92731.22;5069395;28;7263;-56
2023/10/19 03:10:25;;;;;;;;;;;;;;;23.36;43.12;92725.34;5066378;28;9004;-56
2023/10/19 03:12:52;;;;;;;;;;;;;;;23.31;43.60;92737.88;5052006;28;7244;-56
2023/10/19 03:15:22;;;;;;;;;;;;;;;23.36;43.20;92728.06;5067664;28;7282;-56
2023/10/19 03:17:49;;;;;;;;;;;;;;;23.38;43.51;92729.00;5072438;28;6979;-56
2023/10/19 03:20:17;;;;;;;;;;;;;;;23.33;43.29;92724.41;5025249;28;7299;-56
2023/10/19 03:22:46;;;;;;;;;;;;;;;23.35;43.76;92732.09;5051493;28;9444;-56
2023/10/19 03:28:12;;;;;;;;;;;;;;;23.29;43.63;92718.47;5062460;28;6880;-56
2023/10/19 03:30:41;;;;;;;;;;;;;;;23.32;43.56;92720.13;5040598;28;6996;-56
2023/10/19 03:33:12;;;;;;;;;;;;;;;23.34;43.57;92720.38;5077066;28;8532;-56
2023/10/19 03:35:41;;;;;;;;;;;;;;;23.34;43.40;92720.38;5081107;28;7116;-56
2023/10/19 03:38:14;;;;;;;;;;;;;;;23.34;43.19;92720.38;5066290;28;7221;-56
2023/10/19 03:40:42;;;;;;;;;;;;;;;23.37;43.49;92721.31;5081601;28;8759;-56
2023/10/19 03:43:17;;;;;;;;;;;;;;;23.35;43.89;92719.09;5062023;28;8374;-56
2023/10/19 03:45:50;;;;;;;;;;;;;;;23.34;43.12;92712.13;5074337;28;8755;-55
2023/10/19 03:48:29;;;;;;;;;;;;;;;23.35;43.68;92707.38;5068943;28;9213;-54
2023/10/19 03:50:56;;;;;;;;;;;;;;;23.34;43.45;92708.69;5056173;28;9170;-55
2023/10/19 03:53:23;;;;;;;;;;;;;;;23.31;43.81;92702.22;5063181;28;7011;-55
2023/10/19 03:55:55;;;;;;;;;;;;;;;23.30;43.38;92703.47;5065243;28;9167;-55
2023/10/19 03:58:21;;;;;;;;;;;;;;;23.33;43.65;92707.94;5053936;28;7206;-55
2023/10/19 04:00:50;;;;;;;;;;;;;;;23.34;43.10;92705.94;5060247;28;8769;-55
2023/10/19 04:03:18;;;;;;;;;;;;;;;23.37;43.38;92702.09;5072922;28;9275;-53
2023/10/19 04:05:46;;;;;;;;;;;;;;;23.34;43.89;92700.44;5051678;28;8709;-54
2023/10/19 04:08:19;;;;;;;;;;;;;;;23.36;43.74;92698.63;5081567;28;7050;-54
2023/10/19 04:13:38;;;;;;;;;;;;;;;23.33;43.92;92691.47;5061221;28;9050;-55
2023/10/19 04:16:10;;;;;;;;;;;;;;;23.37;43.55;92691.13;5050659;28;9181;-55
2023/10/19 04:18:38;;;;;;;;;;;;;;;23.36;43.16;92681.44;5065109;28;7280;-54
2023/10/19 04:21:13;;;;;;;;;;;;;;;23.36;43.93;92689.66;5067465;28;8755;-54
2023/10/19 04:23:42;;;;;;;;;;;;;;;23.35;43.61;92677.97;5050102;28;7277;-55
2023/10/19 04:26:11;;;;;;;;;;;;;;;23.35;43.49;92672.47;5053855;28;7226;-55
2023/10/19 04:29:09;;;;;;;;;;;;;;;23.35;43.11;92675.22;5043578;28;8997;-53
2023/10/19 04:31:26;;;;;;;;;;;;;;;23.35;43.48;92658.75;5073434;28;7172;-53
2023/10/19 04:34:06;;;;;;;;;;;;;;;23.32;43.40;92656.31;5060807;28;6922;-53
2023/10/19 04:36:48;;;;;;;;;;;;;;;23.35;43.28;92658.00;5072050;28;7120;-55
2023/10/19 04:39:19;;;;;;;;;;;;;;;23.35;43.59;92661.50;5076983;28;8838;-55
2023/10/19 04:41:53;;;;;;;;;;;;;;;23.33;43.15;92661.31;5067439;28;9074;-55
2023/10/19 04:44:30;;;;;;;;;;;;;;;23.33;43.27;92661.31;5077946;28;7265;-54
2023/10/19 04:47:07;;;;;;;;;;;;;;;23.32;43.25;92651.56;5053757;28;9265;-54
2023/10/19 04:50:02;;;;;;;;;;;;;;;23.33;43.72;92658.56;5057174;28;7358;-55
2023/10/19 04:52:29;;;;;;;;;;;;;;;23.34;43.23;92649.03;4992790;28;7329;-54
2023/10/19 04:55:09;;;;;;;;;;;;;;;23.34;43.20;92638.06;4992514;28;7314;-56
2023/10/19 04:57:35;;;;;;;;;;;;;;;23.34;43.51;92651.06;4992815;28;7066;-56
2023/10/19 05:00:03;;;;;;;;;;;;;;;23.34;43.74;92649.03;5010559;28;7207;-56
2023/10/19 05:02:39;;;;;;;;;;;;;;;23.33;43.57;92636.63;4985808;28;9122;-56
2023/10/19 05:05:05;;;;;;;;;;;;;;;23.27;43.41;92633.25;4977488;28;7271;-56
2023/10/19 05:08:01;;;;;;;;;;;;;;;23.31;43.60;92633.66;4985357;28;7219;-56
2023/10/19 05:10:43;;;;;;;;;;;;;;;23.31;43.67;92625.41;4937962;28;6995;-56
2023/10/19 05:13:59;;;;;;;;;;;;;;;23.33;43.41;92624.88;4975195;28;7006;-56
2023/10/19 05:16:27;;;;;;;;;;;;;;;23.33;43.28;92619.38;4930273;29;8739;-56
2023/10/19 05:18:56;;;;;;;;;;;;;;;23.32;43.44;92609.66;4938105;28;7386;-56
2023/10/19 05:21:34;;;;;;;;;;;;;;;23.33;43.45;92608.41;4922644;29;7222;-56
2023/10/19 05:24:09;;;;;;;;;;;;;;;23.32;43.15;92601.44;4914921;29;9107;-56
2023/10/19 05:26:46;;;;;;;;;;;;;;;23.30;43.27;92602.00;4931672;28;7001;-56
2023/10/19 05:29:14;;;;;;;;;;;;;;;23.27;43.73;92602.34;4939551;28;6987;-56
2023/10/19 05:31:53;;;;;;;;;;;;;;;23.25;43.21;92592.63;4936560;28;7164;-56
2023/10/19 05:34:50;;;;;;;;;;;;;;;23.29;43.88;92602.53;4933278;29;7251;-56
2023/10/19 05:37:17;;;;;;;;;;;;;;;23.27;43.53;92598.31;4865474;29;9062;-56
2023/10/19 05:39:54;;;;;;;;;;;;;;;23.31;43.64;92589.75;4884124;29;7245;-56
2023/10/19 05:42:31;;;;;;;;;;;;;;;23.32;43.65;92584.97;4884916;29;9050;-56
2023/10/19 05:45:17;;;;;;;;;;;;;;;23.30;43.24;92582.03;4896649;29;9257;-56
2023/10/19 05:48:00;;;;;;;;;;;;;;;23.29;43.65;92583.34;4889825;29;9012;-56
2023/10/19 05:50:51;;;;;;;;;;;;;;;23.30;43.77;92584.78;4913880;29;7118;-56
2023/10/19 05:53:22;;;;;;;;;;;;;;;23.30;43.07;92582.78;4944760;28;7243;-56
2023/10/19 05:55:49;;;;;;;;;;;;;;;23.31;43.68;92584.28;4939627;29;7457;-56
2023/10/19 05:58:26;;;;;;;;;;;;;;;23.29;43.36;92575.09;4952278;29;7364;-56
2023/10/19 06:00:58;;;;;;;;;;;;;;;23.30;43.01;92574.56;4943666;28;8776;-56
2023/10/19 06:03:25;;;;;;;;;;;;;;;23.29;43.64;92572.38;4962031;28;8756;-60
2023/10/19 06:06:26;;;;;;;;;;;;;;;23.32;43.15;92576.75;4955225;28;7033;-60
2023/10/19 06:08:53;;;;;;;;;;;;;;;23.32;43.54;92565.78;4943785;28;7283;-60
2023/10/19 06:11:22;;;;;;;;;;;;;;;23.30;43.21;92571.06;4943835;28;9156;-60
2023/10/19 06:13:48;;;;;;;;;;;;;;;23.31;43.65;92567.06;5010931;28;7230;-60
2023/10/19 06:16:14;;;;;;;;;;;;;;;23.29;43.33;92564.13;5049534;28;9136;-60
2023/10/19 06:18:40;;;;;;;;;;;;;;;23.27;43.50;92563.94;5069659;28;9273;-60
2023/10/19 06:21:19;;;;;;;;;;;;;;;23.23;43.09;92562.25;5067263;28;7259;-60
2023/10/19 06:23:46;;;;;;;;;;;;;;;23.27;43.17;92570.88;5069869;28;7320;-60
2023/10/19 06:26:16;;;;;;;;;;;;;;;23.29;43.25;92570.38;5077201;28;7362;-60
2023/10/19 06:28:59;;;;;;;;;;;;;;;23.29;43.03;92562.13;5062498;28;7914;-60
2023/10/19 06:31:26;;;;;;;;;;;;;;;23.29;43.36;92561.38;5057386;28;7028;-60
2023/10/19 06:34:03;;;;;;;;;;;;;;;23.31;43.76;92564.31;5099355;28;7230;-61
2023/10/19 06:36:54;;;;;;;;;;;;;;;23.31;43.75;92567.06;5061297;28;7488;-60
2023/10/19 06:39:23;;;;;;;;;;;;;;;23.29;43.61;92569.63;5058726;28;7248;-60
2023/10/19 06:41:55;;;;;;;;;;;;;;;23.30;44.04;92571.81;5069718;28;7044;-60
2023/10/19 06:44:22;;;;;;;;;;;;;;;23.27;43.33;92568.13;5059129;28;7387;-60
2023/10/19 06:46:51;;;;;;;;;;;;;;;23.29;43.44;92562.13;5043763;28;7248;-60
2023/10/19 06:49:20;;;;;;;;;;;;;;;23.25;43.50;92550.75;5069252;28;7393;-61
2023/10/19 06:51:48;;;;;;;;;;;;;;;23.29;43.04;92553.91;5087027;28;7255;-61
2023/10/19 06:54:22;;;;;;;;;;;;;;;23.26;43.33;92552.22;5060735;28;9094;-60
2023/10/19 06:56:57;;;;;;;;;;;;;;;23.25;43.42;92550.75;5067074;28;7268;-61
2023/10/19 06:59:24;;;;;;;;;;;;;;;23.29;43.17;92547.69;5049530;28;7364;-60
2023/10/19 07:01:52;;;;;;;;;;;;;;;23.29;43.20;92555.91;5080746;28;9191;-60
2023/10/19 07:04:20;;;;;;;;;;;;;;;23.27;43.69;92555.72;5089201;28;6983;-60
2023/10/19 07:06:47;;;;;;;;;;;;;;;23.27;43.34;92559.91;5063032;28;8701;-60
2023/10/19 07:09:18;;;;;;;;;;;;;;;23.27;43.33;92548.22;5052945;28;6985;-60
2023/10/19 07:11:44;;;;;;;;;;;;;;;23.27;43.78;92562.66;5057229;28;7295;-61
2023/10/19 07:14:12;;;;;;;;;;;;;;;23.25;43.32;92548.00;5057012;28;8984;-56
2023/10/19 07:16:59;;;;;;;;;;;;;;;23.27;43.55;92558.44;5049029;28;9858;-56
2023/10/19 07:19:42;;;;;;;;;;;;;;;23.25;43.17;92565.19;5046917;28;7473;-56
2023/10/19 07:22:09;;;;;;;;;;;;;;;23.22;43.67;92557.31;5038479;28;7182;-56
2023/10/19 07:24:48;;;;;;;;;;;;;;;23.25;43.36;92558.97;5056369;28;7248;-56
2023/10/19 07:27:27;;;;;;;;;;;;;;;23.23;43.78;92551.28;5067300;28;8632;-57
2023/10/19 07:29:54;;;;;;;;;;;;;;;23.23;43.59;92551.28;5073238;28;7172;-56
2023/10/19 07:32:21;;;;;;;;;;;;;;;23.20;43.73;92549.66;5064767;28;9316;-56
2023/10/19 07:34:49;;;;;;;;;;;;;;;23.25;43.80;92550.75;5042804;28;9116;-56
2023/10/19 07:37:17;;;;;;;;;;;;;;;23.25;43.50;92548.00;5043689;28;8811;-56
2023/10/19 07:39:47;;;;;;;;;;;;;;;23.23;43.56;92543.06;5068022;28;7269;-56
2023/10/19 07:42:32;;;;;;;;;;;;;;;23.24;43.79;92530.84;5045888;28;9119;-56
2023/10/19 07:44:59;;;;;;;;;;;;;;;23.24;43.51;92538.31;5073010;28;9136;-57
2023/10/19 07:47:28;;;;;;;;;;;;;;;23.25;43.66;92537.03;5060036;28;9093;-56
2023/10/19 07:50:03;;;;;;;;;;;;;;;23.22;43.74;92547.09;5065721;28;7283;-56
2023/10/19 07:52:30;;;;;;;;;;;;;;;23.23;43.78;92543.06;5063098;28;9118;-56
2023/10/19 07:55:26;;;;;;;;;;;;;;;23.23;43.87;92540.31;5062227;28;9210;-56
2023/10/19 07:58:06;;;;;;;;;;;;;;;23.25;43.54;92531.53;5026097;28;9232;-56
2023/10/19 08:00:46;;;;;;;;;;;;;;;23.21;43.75;92523.69;5015184;28;7212;-56
2023/10/19 08:03:29;;;;;;;;;;;;;;;23.24;43.76;92524.59;4997115;28;7261;-56
2023/10/19 08:06:04;;;;;;;;;;;;;;;23.22;43.33;92522.41;5028662;28;6982;-56
2023/10/19 08:09:00;;;;;;;;;;;;;;;23.20;43.76;92521.47;5015817;28;8768;-56
2023/10/19 08:11:27;;;;;;;;;;;;;;;23.19;43.69;92515.25;4946839;28;8803;-56
2023/10/19 08:14:14;;;;;;;;;;;;;;;23.20;43.96;92513.25;4942167;28;9220;-56
2023/10/19 08:16:43;;;;;;;;;;;;;;;23.20;43.84;92508.50;4950944;28;7228;-56
2023/10/19 08:19:09;;;;;;;;;;;;;;;23.20;43.38;92492.06;4966222;28;7640;-56
2023/10/19 08:21:47;;;;;;;;;;;;;;;23.22;43.90;92495.00;4957203;28;7236;-56
2023/10/19 08:24:17;;;;;;;;;;;;;;;23.21;44.02;92499.00;4969295;28;7021;-63
2023/10/19 08:26:47;;;;;;;;;;;;;;;23.22;43.78;92505.97;4956118;28;7032;-63
2023/10/19 08:29:24;;;;;;;;;;;;;;;23.23;43.56;92514.91;4961697;28;7539;-63
2023/10/19 08:32:16;;;;;;;;;;;;;;;23.25;43.44;92510.34;4948538;28;7758;-63
2023/10/19 08:35:04;;;;;;;;;;;;;;;23.26;43.33;92511.09;4970258;28;8807;-63
2023/10/19 08:37:44;;;;;;;;;;;;;;;23.25;43.99;92523.31;4973201;28;7780;-63
2023/10/19 08:40:17;;;;;;;;;;;;;;;23.26;43.46;92505.59;4983174;28;9192;-63
2023/10/19 08:43:21;;;;;;;;;;;;;;;23.29;43.92;92509.28;4965986;28;7300;-63
2023/10/19 08:46:24;;;;;;;;;;;;;;;23.27;43.45;92507.78;4922792;29;7058;-63
2023/10/19 08:48:55;;;;;;;;;;;;;;;23.24;43.67;92494.44;4965479;28;7228;-63
2023/10/19 08:51:21;;;;;;;;;;;;;;;23.30;43.53;92488.78;4982287;28;7420;-63
2023/10/19 08:54:16;;;;;;;;;;;;;;;23.29;43.65;92495.56;4989438;28;9107;-63
2023/10/19 08:56:51;;;;;;;;;;;;;;;23.22;43.78;92492.25;4936497;28;7186;-63
2023/10/19 08:59:28;;;;;;;;;;;;;;;23.25;43.94;92495.88;4943018;28;7079;-63
2023/10/19 09:02:03;;;;;;;;;;;;;;;23.27;43.63;92478.91;4941671;28;7224;-63
2023/10/19 09:05:08;;;;;;;;;;;;;;;23.25;43.59;92477.44;4930085;28;7156;-63
2023/10/19 09:07:47;;;;;;;;;;;;;;;23.22;43.58;92467.56;4902878;29;7255;-63
2023/10/19 09:10:19;;;;;;;;;;;;;;;23.26;43.85;92480.91;4887190;29;8210;-63
2023/10/19 09:13:12;;;;;;;;;;;;;;;23.27;43.96;92472.13;4896261;29;7050;-63
2023/10/19 09:16:05;;;;;;;;;;;;;;;23.27;43.50;92463.19;4872314;29;6979;-63
2023/10/19 09:19:01;;;;;;;;;;;;;;;23.25;43.72;92444.53;4895785;29;9073;-63
2023/10/19 09:21:28;;;;;;;;;;;;;;;23.29;43.64;92454.41;4954264;28;7033;-63
2023/10/19 09:24:00;;;;;;;;;;;;;;;23.27;44.01;92452.94;4972503;28;9173;-63
2023/10/19 09:26:37;;;;;;;;;;;;;;;23.23;43.78;92449.81;4956366;28;7260;-63
2023/10/19 09:29:18;;;;;;;;;;;;;;;23.25;43.97;92444.53;4956446;28;7244;-63
2023/10/19 09:32:02;;;;;;;;;;;;;;;23.25;43.97;92444.53;4948625;28;7050;-63
2023/10/19 09:34:32;;;;;;;;;;;;;;;23.25;43.90;92439.03;4998656;28;7239;-63
2023/10/19 09:37:12;;;;;;;;;;;;;;;23.21;43.85;92430.44;4994978;28;7298;-63
2023/10/19 09:39:43;;;;;;;;;;;;;;;23.27;44.33;92438.50;4991663;28;7249;-63
2023/10/19 09:42:18;;;;;;;;;;;;;;;23.25;43.78;92432.81;5002064;28;7206;-63
2023/10/19 09:44:59;;;;;;;;;;;;;;;23.25;43.88;92425.31;5017576;28;7348;-63
2023/10/19 09:47:41;;;;;;;;;;;;;;;23.25;44.09;92428.06;5013753;28;8744;-63
2023/10/19 09:50:11;;;;;;;;;;;;;;;23.21;43.89;92422.19;4995710;28;7252;-63
2023/10/19 09:52:58;;;;;;;;;;;;;;;23.24;43.59;92414.91;5004311;28;7260;-63
2023/10/19 09:55:39;;;;;;;;;;;;;;;23.27;43.63;92420.03;5009978;28;7170;-63
2023/10/19 09:58:25;;;;;;;;;;;;;;;23.25;44.10;92406.13;5037057;28;6982;-63
2023/10/19 10:00:57;;;;;;;;;;;;;;;23.25;43.71;92406.13;5035889;28;7855;-63
2023/10/19 10:03:59;;;;;;;;;;;;;;;23.32;43.59;92407.44;5045697;28;7037;-63
2023/10/19 10:06:51;;;;;;;;;;;;;;;23.29;44.04;92405.03;5057838;28;7277;-63
2023/10/19 10:09:26;;;;;;;;;;;;;;;23.36;43.62;92404.38;5051574;28;8637;-63
2023/10/19 10:12:21;;;;;;;;;;;;;;;23.36;43.97;92410.56;5079852;28;8126;-63
2023/10/19 10:15:07;;;;;;;;;;;;;;;23.33;43.51;92408.16;5057714;28;6998;-63
2023/10/19 10:17:53;;;;;;;;;;;;;;;23.36;44.18;92407.13;5065151;28;7497;-63
2023/10/19 10:20:21;;;;;;;;;;;;;;;23.36;43.84;92409.88;5068949;28;7419;-63
2023/10/19 10:23:21;;;;;;;;;;;;;;;23.38;43.47;92405.28;5082339;28;8753;-63
2023/10/19 10:25:53;;;;;;;;;;;;;;;23.37;43.75;92405.81;4995067;28;7318;-63
2023/10/19 10:28:23;;;;;;;;;;;;;;;23.34;43.58;92393.22;5010756;28;7158;-63
2023/10/19 10:31:13;;;;;;;;;;;;;;;23.38;44.07;92401.81;4988080;28;7296;-63
2023/10/19 10:33:40;;;;;;;;;;;;;;;23.39;43.74;92389.56;4981513;28;9026;-63
2023/10/19 10:36:07;;;;;;;;;;;;;;;23.41;43.81;92397.97;4996314;28;8780;-63
2023/10/19 10:38:36;;;;;;;;;;;;;;;23.38;43.87;92401.81;5005123;28;9067;-63
2023/10/19 10:41:11;;;;;;;;;;;;;;;23.43;43.31;92403.66;5015854;28;8871;-63
2023/10/19 10:43:58;;;;;;;;;;;;;;;23.44;43.73;92405.13;4983943;28;7170;-62
2023/10/19 10:46:28;;;;;;;;;;;;;;;23.43;43.48;92398.16;5006015;28;7054;-62
2023/10/19 10:49:17;;;;;;;;;;;;;;;23.44;43.87;92403.13;4998470;28;8749;-62
2023/10/19 10:51:54;;;;;;;;;;;;;;;23.44;43.70;92400.38;5000659;28;9061;-62
2023/10/19 10:54:22;;;;;;;;;;;;;;;23.41;44.33;92390.47;5014725;28;7019;-62
2023/10/19 10:56:49;;;;;;;;;;;;;;;23.44;43.98;92394.16;5003489;28;8211;-62
2023/10/19 10:59:49;;;;;;;;;;;;;;;23.45;43.61;92398.34;5000524;28;6986;-62
2023/10/19 11:02:21;;;;;;;;;;;;;;;23.44;44.19;92394.16;4914702;28;7424;-62
2023/10/19 11:04:50;;;;;;;;;;;;;;;23.45;44.18;92385.38;4980405;28;7195;-62
2023/10/19 11:07:19;;;;;;;;;;;;;;;23.45;43.79;92379.88;4963503;28;7911;-62
2023/10/19 11:10:03;;;;;;;;;;;;;;;23.47;43.93;92377.31;4972944;28;7660;-62
2023/10/19 11:12:43;;;;;;;;;;;;;;;23.46;43.96;92375.13;4978350;28;7764;-62
2023/10/19 11:15:09;;;;;;;;;;;;;;;23.46;43.53;92364.16;4980116;28;9235;-62
2023/10/19 11:17:47;;;;;;;;;;;;;;;23.48;43.91;92364.34;4966659;28;7187;-62
2023/10/19 11:20:30;;;;;;;;;;;;;;;23.48;43.53;92376.06;4965004;28;8750;-62
2023/10/19 11:23:06;;;;;;;;;;;;;;;23.45;43.88;92362.69;4973658;28;8977;-62
2023/10/19 11:25:57;;;;;;;;;;;;;;;23.48;44.17;92362.34;4954941;28;8726;-62
2023/10/19 11:28:28;;;;;;;;;;;;;;;23.51;43.76;92366.00;4967681;28;9415;-62
2023/10/19 11:31:09;;;;;;;;;;;;;;;23.50;43.33;92364.53;4950125;28;8794;-62
2023/10/19 11:33:49;;;;;;;;;;;;;;;23.51;44.06;92363.97;4965369;28;6989;-62
2023/10/19 11:36:20;;;;;;;;;;;;;;;23.53;43.77;92364.16;4968531;28;6981;-62
2023/10/19 11:38:53;;;;;;;;;;;;;;;23.52;44.02;92367.47;5039799;28;7015;-61
2023/10/19 11:41:21;;;;;;;;;;;;;;;23.50;43.89;92359.78;5065813;28;7319;-62
2023/10/19 11:43:49;;;;;;;;;;;;;;;23.52;43.56;92357.22;5070359;28;7049;-62
2023/10/19 11:46:25;;;;;;;;;;;;;;;23.53;44.14;92363.44;5048358;28;7336;-62
2023/10/19 11:48:55;;;;;;;;;;;;;;;23.51;43.74;92355.03;5065159;28;7239;-62
2023/10/19 11:51:43;;;;;;;;;;;;;;;23.56;43.36;92354.13;5071944;28;7392;-61
2023/10/19 11:54:14;;;;;;;;;;;;;;;23.59;43.39;92359.25;5056950;28;7244;-63
2023/10/19 11:56:45;;;;;;;;;;;;;;;23.62;43.79;92349.91;5056800;28;8194;-63
2023/10/19 11:59:31;;;;;;;;;;;;;;;23.63;43.71;92345.16;5088093;28;9053;-63
2023/10/19 12:02:00;;;;;;;;;;;;;;;23.59;43.53;92331.81;5069478;28;7029;-63
2023/10/19 12:04:29;;;;;;;;;;;;;;;23.63;43.33;92336.94;5036281;28;7047;-63
2023/10/19 12:06:58;;;;;;;;;;;;;;;23.63;43.99;92342.44;5045401;28;7246;-63
2023/10/19 12:09:28;;;;;;;;;;;;;;;23.65;43.48;92342.59;5038513;28;9031;-63
2023/10/19 12:11:56;;;;;;;;;;;;;;;23.63;43.41;92336.94;5064344;28;7455;-63
2023/10/19 12:14:22;;;;;;;;;;;;;;;23.66;43.19;92344.09;5053680;28;7247;-63
2023/10/19 12:17:07;;;;;;;;;;;;;;;23.63;43.66;92334.19;5062958;28;7244;-63
2023/10/19 12:19:33;;;;;;;;;;;;;;;23.66;43.03;92333.81;5037288;28;7209;-63
2023/10/19 12:22:00;;;;;;;;;;;;;;;23.67;43.62;92340.03;5041830;28;8998;-63
2023/10/19 12:24:30;;;;;;;;;;;;;;;23.70;43.23;92333.47;5056366;28;7481;-63
2023/10/19 12:27:24;;;;;;;;;;;;;;;23.71;43.28;92327.44;5087039;28;9173;-63
2023/10/19 12:29:54;;;;;;;;;;;;;;;23.71;43.57;92312.97;5058272;28;7261;-63
2023/10/19 12:32:21;;;;;;;;;;;;;;;23.73;42.97;92316.63;5071806;28;7272;-63
2023/10/19 12:34:56;;;;;;;;;;;;;;;23.75;43.48;92327.09;5060404;28;7232;-63
2023/10/19 12:37:24;;;;;;;;;;;;;;;23.75;43.40;92327.09;5063318;28;7274;-63
2023/10/19 12:39:51;;;;;;;;;;;;;;;23.75;43.37;92307.88;5039124;28;7040;-63
2023/10/19 12:42:17;;;;;;;;;;;;;;;23.76;43.86;92298.34;5050428;28;8990;-62
2023/10/19 12:44:48;;;;;;;;;;;;;;;23.75;43.01;92299.63;5025232;28;9449;-63
2023/10/19 12:47:24;;;;;;;;;;;;;;;23.76;43.58;92298.34;5069860;28;9046;-63
2023/10/19 12:49:53;;;;;;;;;;;;;;;23.78;43.31;92296.53;5043127;28;7747;-63
2023/10/19 12:52:20;;;;;;;;;;;;;;;23.80;43.06;92295.97;5053032;28;7331;-63
2023/10/19 12:55:00;;;;;;;;;;;;;;;23.83;43.47;92284.63;5051423;28;7063;-63
2023/10/19 12:57:35;;;;;;;;;;;;;;;23.87;43.65;92284.25;5050626;28;7200;-63
2023/10/19 13:00:23;;;;;;;;;;;;;;;23.88;43.33;92283.69;5064533;28;9076;-63
2023/10/19 13:02:50;;;;;;;;;;;;;;;23.89;43.11;92287.19;5075163;28;7419;-63
2023/10/19 13:05:18;;;;;;;;;;;;;;;23.94;43.04;92273.28;5050947;28;7268;-54
2023/10/19 13:07:46;;;;;;;;;;;;;;;23.97;43.58;92274.16;5054831;28;9084;-54
2023/10/19 13:10:13;;;;;;;;;;;;;;;23.97;43.31;92263.94;5056407;28;9352;-55
2023/10/19 13:12:41;;;;;;;;;;;;;;;24.00;43.69;92259.34;5045453;28;7336;-55
2023/10/19 13:15:15;;;;;;;;;;;;;;;24.01;43.38;92254.59;5074663;28;7684;-54
2023/10/19 13:17:43;;;;;;;;;;;;;;;24.04;43.26;92240.47;5076737;28;6995;-55
2023/10/19 13:20:19;;;;;;;;;;;;;;;24.04;43.35;92251.47;5040630;28;7269;-54
2023/10/19 13:22:47;;;;;;;;;;;;;;;24.04;43.84;92256.97;5070821;28;9249;-55
2023/10/19 13:25:13;;;;;;;;;;;;;;;24.05;43.37;92252.25;5064695;28;8988;-55
2023/10/19 13:27:42;;;;;;;;;;;;;;;24.06;43.19;92254.41;5040736;28;7785;-55
2023/10/19 13:30:12;;;;;;;;;;;;;;;24.04;43.30;92237.75;5077032;28;7182;-55
2023/10/19 13:32:56;;;;;;;;;;;;;;;24.05;42.86;92236.50;5055035;28;6990;-55
2023/10/19 13:35:38;;;;;;;;;;;;;;;24.09;43.68;92245.09;5052036;28;7382;-52
2023/10/19 13:38:07;;;;;;;;;;;;;;;24.11;42.94;92245.28;5040356;28;8778;-55
2023/10/19 13:40:38;;;;;;;;;;;;;;;24.11;43.44;92244.53;5035987;28;7241;-53
2023/10/19 13:43:13;;;;;;;;;;;;;;;24.12;43.44;92229.53;5058465;28;7639;-54
2023/10/19 13:45:42;;;;;;;;;;;;;;;24.13;43.30;92231.72;5070538;28;7268;-55
2023/10/19 13:48:14;;;;;;;;;;;;;;;24.12;43.68;92224.75;5039578;28;9179;-55
2023/10/19 13:51:14;;;;;;;;;;;;;;;24.17;43.49;92215.59;5072279;28;6982;-54
2023/10/19 13:53:44;;;;;;;;;;;;;;;24.19;43.66;92201.28;5018197;28;7812;-55
2023/10/19 13:56:34;;;;;;;;;;;;;;;;;;5007833;28;6970;-54